Startpagina
METAR-TAF:

METAR-TAF

Vliegvelden :

Kaapstad, Zuid-Afrika

Cape Town International Airport

breedte: 33-59S, lengte: 018-36E, hoogte: 42 m

Actueel weer

Dit bericht is 20 uur en het 14 minuten geleden gemaakt, om 15:00 UTC
Wind 23 kt uit het zuiden
Temperatuur 23°C
Vochtigheid 61%
Druk 1015 hPa
Zicht 10 km of meer
Weinig wolken op 3000 ft

METAR: FACT 201500Z 18023KT 9999 FEW030 23/15 Q1015 NOSIG

Tijdstip: 13:14 (11:14 UTC)

Verwachting

Dit bericht is 25 uur en het 14 minuten geleden gemaakt, om 10:00 UTC
Verwachting geldig van 20 om 12 UTC tot 21 om 18 UTC
Wind 10 kt uit het zuidzuidwesten
Zicht 10 km of meer
geen wolken onder 1500 m en geen cumulonimbus
Wijzigt naar
van 20 om 12 UTC tot 20 om 14 UTC
Wind 21 kt uit het zuiden
Wijzigt naar
van 20 om 19 UTC tot 20 om 21 UTC
Wind 11 kt uit het zuiden

TAF: FACT 201000Z 2012/2118 21010KT CAVOK BECMG 2012/2014 18021KT BECMG 2019/2021 17011KT TX28/2112Z TN17/2104Z

Waarnemingen en weersverwachtingen van meer dan 4000 vliegvelden (METAR en TAF).

De beschikbare stations zijn de gele en rode punten op de kaart.

Ga met uw muis naar het station om de naam te zien.

Klik dan om waarnemingen en weersverwachtingen te zien.

kaart wijzigen: klik op de groene knoppen met een zwart kruis om in te zoomen, op de groene knop met een streepje om uit te zoomen of op de groene pijlen voor aangrenzende kaarten.


METAR-TAF: